sensor_id;sensor_type;location;lat;lon;timestamp;P1;durP1;ratioP1;P2;durP2;ratioP2
6027;SDS011;3042;43.194;27.646;2023-04-01T00:01:18;34.97;;;30.60;;
6027;SDS011;3042;43.194;27.646;2023-04-01T00:03:45;32.80;;;30.20;;
6027;SDS011;3042;43.194;27.646;2023-04-01T00:06:14;33.20;;;30.40;;
6027;SDS011;3042;43.194;27.646;2023-04-01T00:08:43;34.33;;;31.33;;
6027;SDS011;3042;43.194;27.646;2023-04-01T00:11:10;33.37;;;30.63;;
6027;SDS011;3042;43.194;27.646;2023-04-01T00:13:37;41.53;;;32.10;;
6027;SDS011;3042;43.194;27.646;2023-04-01T00:16:05;34.43;;;31.13;;
6027;SDS011;3042;43.194;27.646;2023-04-01T00:18:32;34.00;;;30.87;;
6027;SDS011;3042;43.194;27.646;2023-04-01T00:20:59;37.67;;;33.93;;
6027;SDS011;3042;43.194;27.646;2023-04-01T00:23:28;35.30;;;32.13;;
6027;SDS011;3042;43.194;27.646;2023-04-01T00:25:55;37.10;;;33.57;;
6027;SDS011;3042;43.194;27.646;2023-04-01T00:28:22;34.93;;;31.40;;
6027;SDS011;3042;43.194;27.646;2023-04-01T00:30:49;36.80;;;32.50;;
6027;SDS011;3042;43.194;27.646;2023-04-01T00:33:16;35.63;;;32.47;;
6027;SDS011;3042;43.194;27.646;2023-04-01T00:35:43;35.43;;;32.13;;
6027;SDS011;3042;43.194;27.646;2023-04-01T00:38:10;34.77;;;31.70;;
6027;SDS011;3042;43.194;27.646;2023-04-01T00:40:40;40.80;;;31.90;;
6027;SDS011;3042;43.194;27.646;2023-04-01T00:43:10;34.90;;;31.80;;
6027;SDS011;3042;43.194;27.646;2023-04-01T00:45:39;33.00;;;30.50;;
6027;SDS011;3042;43.194;27.646;2023-04-01T00:48:09;33.43;;;30.63;;
6027;SDS011;3042;43.194;27.646;2023-04-01T00:50:39;34.17;;;31.47;;
6027;SDS011;3042;43.194;27.646;2023-04-01T00:53:08;33.40;;;30.30;;
6027;SDS011;3042;43.194;27.646;2023-04-01T00:55:37;34.47;;;31.70;;
6027;SDS011;3042;43.194;27.646;2023-04-01T00:58:11;34.73;;;31.80;;
6027;SDS011;3042;43.194;27.646;2023-04-01T01:00:43;36.50;;;33.27;;
6027;SDS011;3042;43.194;27.646;2023-04-01T01:03:13;36.63;;;32.97;;
6027;SDS011;3042;43.194;27.646;2023-04-01T01:05:50;36.30;;;33.17;;
6027;SDS011;3042;43.194;27.646;2023-04-01T01:08:33;36.30;;;33.30;;
6027;SDS011;3042;43.194;27.646;2023-04-01T01:11:10;38.23;;;34.50;;
6027;SDS011;3042;43.194;27.646;2023-04-01T01:13:40;38.80;;;34.70;;
6027;SDS011;3042;43.194;27.646;2023-04-01T01:16:13;36.80;;;33.67;;
6027;SDS011;3042;43.194;27.646;2023-04-01T01:18:50;32.63;;;29.53;;
6027;SDS011;3042;43.194;27.646;2023-04-01T01:21:29;33.43;;;30.53;;
6027;SDS011;3042;43.194;27.646;2023-04-01T01:27:11;34.17;;;31.47;;
6027;SDS011;3042;43.194;27.646;2023-04-01T01:29:56;33.73;;;30.77;;
6027;SDS011;3042;43.194;27.646;2023-04-01T01:35:35;34.70;;;31.77;;
6027;SDS011;3042;43.194;27.646;2023-04-01T01:38:06;32.17;;;29.60;;
6027;SDS011;3042;43.194;27.646;2023-04-01T01:40:36;33.63;;;30.90;;
6027;SDS011;3042;43.194;27.646;2023-04-01T01:43:08;33.43;;;30.53;;
6027;SDS011;3042;43.194;27.646;2023-04-01T01:45:39;31.53;;;29.03;;
6027;SDS011;3042;43.194;27.646;2023-04-01T01:48:10;31.40;;;29.00;;
6027;SDS011;3042;43.194;27.646;2023-04-01T01:50:40;31.03;;;28.67;;
6027;SDS011;3042;43.194;27.646;2023-04-01T01:53:08;31.80;;;29.10;;
6027;SDS011;3042;43.194;27.646;2023-04-01T01:55:37;32.80;;;29.93;;
6027;SDS011;3042;43.194;27.646;2023-04-01T01:58:07;34.80;;;31.10;;
6027;SDS011;3042;43.194;27.646;2023-04-01T02:00:38;59.23;;;33.47;;
6027;SDS011;3042;43.194;27.646;2023-04-01T02:03:09;40.23;;;34.00;;
6027;SDS011;3042;43.194;27.646;2023-04-01T02:05:40;37.97;;;34.47;;
6027;SDS011;3042;43.194;27.646;2023-04-01T02:08:07;35.43;;;32.23;;
6027;SDS011;3042;43.194;27.646;2023-04-01T02:10:39;37.63;;;31.57;;
6027;SDS011;3042;43.194;27.646;2023-04-01T02:13:11;35.57;;;31.03;;
6027;SDS011;3042;43.194;27.646;2023-04-01T02:15:44;57.70;;;32.50;;
6027;SDS011;3042;43.194;27.646;2023-04-01T02:18:14;34.80;;;31.10;;
6027;SDS011;3042;43.194;27.646;2023-04-01T02:20:43;39.70;;;32.57;;
6027;SDS011;3042;43.194;27.646;2023-04-01T02:23:11;33.87;;;30.43;;
6027;SDS011;3042;43.194;27.646;2023-04-01T02:25:39;35.27;;;31.70;;
6027;SDS011;3042;43.194;27.646;2023-04-01T02:28:08;35.60;;;31.73;;
6027;SDS011;3042;43.194;27.646;2023-04-01T02:30:37;39.47;;;32.97;;
6027;SDS011;3042;43.194;27.646;2023-04-01T02:33:06;38.63;;;30.90;;
6027;SDS011;3042;43.194;27.646;2023-04-01T02:35:34;36.10;;;32.47;;
6027;SDS011;3042;43.194;27.646;2023-04-01T02:38:04;44.20;;;29.93;;
6027;SDS011;3042;43.194;27.646;2023-04-01T02:40:42;34.70;;;31.20;;
6027;SDS011;3042;43.194;27.646;2023-04-01T02:43:13;33.63;;;30.33;;
6027;SDS011;3042;43.194;27.646;2023-04-01T02:45:41;38.20;;;31.77;;
6027;SDS011;3042;43.194;27.646;2023-04-01T02:48:08;33.10;;;30.33;;
6027;SDS011;3042;43.194;27.646;2023-04-01T02:50:35;33.33;;;30.20;;
6027;SDS011;3042;43.194;27.646;2023-04-01T02:53:04;33.60;;;30.60;;
6027;SDS011;3042;43.194;27.646;2023-04-01T02:55:31;35.33;;;32.00;;
6027;SDS011;3042;43.194;27.646;2023-04-01T02:57:58;39.03;;;32.27;;
6027;SDS011;3042;43.194;27.646;2023-04-01T03:00:25;36.00;;;32.73;;
6027;SDS011;3042;43.194;27.646;2023-04-01T03:02:53;36.40;;;32.50;;
6027;SDS011;3042;43.194;27.646;2023-04-01T03:05:20;39.63;;;33.10;;
6027;SDS011;3042;43.194;27.646;2023-04-01T03:07:47;37.40;;;33.83;;
6027;SDS011;3042;43.194;27.646;2023-04-01T03:10:15;33.20;;;29.80;;
6027;SDS011;3042;43.194;27.646;2023-04-01T03:12:43;34.67;;;31.67;;
6027;SDS011;3042;43.194;27.646;2023-04-01T03:15:10;35.23;;;28.27;;
6027;SDS011;3042;43.194;27.646;2023-04-01T03:17:39;42.13;;;34.50;;
6027;SDS011;3042;43.194;27.646;2023-04-01T03:20:07;42.67;;;29.73;;
6027;SDS011;3042;43.194;27.646;2023-04-01T03:22:35;36.03;;;29.70;;
6027;SDS011;3042;43.194;27.646;2023-04-01T03:25:04;41.93;;;32.10;;
6027;SDS011;3042;43.194;27.646;2023-04-01T03:27:34;36.83;;;30.40;;
6027;SDS011;3042;43.194;27.646;2023-04-01T03:30:01;36.70;;;31.60;;
6027;SDS011;3042;43.194;27.646;2023-04-01T03:32:28;45.37;;;30.63;;
6027;SDS011;3042;43.194;27.646;2023-04-01T03:34:55;35.73;;;30.07;;
6027;SDS011;3042;43.194;27.646;2023-04-01T03:37:23;50.40;;;29.90;;
6027;SDS011;3042;43.194;27.646;2023-04-01T03:39:50;35.03;;;30.37;;
6027;SDS011;3042;43.194;27.646;2023-04-01T03:42:18;32.57;;;29.70;;
6027;SDS011;3042;43.194;27.646;2023-04-01T03:44:46;33.30;;;29.83;;
6027;SDS011;3042;43.194;27.646;2023-04-01T03:47:13;38.50;;;30.83;;
6027;SDS011;3042;43.194;27.646;2023-04-01T03:49:40;42.73;;;30.80;;
6027;SDS011;3042;43.194;27.646;2023-04-01T03:52:08;34.67;;;31.13;;
6027;SDS011;3042;43.194;27.646;2023-04-01T03:54:36;33.67;;;30.73;;
6027;SDS011;3042;43.194;27.646;2023-04-01T03:57:03;33.70;;;30.03;;
6027;SDS011;3042;43.194;27.646;2023-04-01T03:59:30;31.47;;;28.73;;
6027;SDS011;3042;43.194;27.646;2023-04-01T04:01:59;34.70;;;30.70;;
6027;SDS011;3042;43.194;27.646;2023-04-01T04:04:26;32.70;;;28.90;;
6027;SDS011;3042;43.194;27.646;2023-04-01T04:06:53;31.47;;;27.70;;
6027;SDS011;3042;43.194;27.646;2023-04-01T04:09:20;32.70;;;29.40;;
6027;SDS011;3042;43.194;27.646;2023-04-01T04:11:47;33.97;;;30.60;;
6027;SDS011;3042;43.194;27.646;2023-04-01T04:14:14;37.40;;;32.67;;
6027;SDS011;3042;43.194;27.646;2023-04-01T04:16:41;38.97;;;34.97;;
6027;SDS011;3042;43.194;27.646;2023-04-01T04:19:10;34.90;;;31.50;;
6027;SDS011;3042;43.194;27.646;2023-04-01T04:21:37;39.43;;;29.77;;
6027;SDS011;3042;43.194;27.646;2023-04-01T04:24:04;32.73;;;29.60;;
6027;SDS011;3042;43.194;27.646;2023-04-01T04:26:31;32.53;;;29.63;;
6027;SDS011;3042;43.194;27.646;2023-04-01T04:28:59;33.80;;;30.50;;
6027;SDS011;3042;43.194;27.646;2023-04-01T04:31:26;32.20;;;28.97;;
6027;SDS011;3042;43.194;27.646;2023-04-01T04:33:54;37.93;;;31.37;;
6027;SDS011;3042;43.194;27.646;2023-04-01T04:36:22;31.93;;;28.93;;
6027;SDS011;3042;43.194;27.646;2023-04-01T04:38:49;33.53;;;29.97;;
6027;SDS011;3042;43.194;27.646;2023-04-01T04:41:17;35.30;;;29.27;;
6027;SDS011;3042;43.194;27.646;2023-04-01T04:43:48;35.40;;;31.50;;
6027;SDS011;3042;43.194;27.646;2023-04-01T04:46:16;32.57;;;29.23;;
6027;SDS011;3042;43.194;27.646;2023-04-01T04:48:43;37.13;;;29.47;;
6027;SDS011;3042;43.194;27.646;2023-04-01T04:51:12;34.90;;;30.13;;
6027;SDS011;3042;43.194;27.646;2023-04-01T04:53:42;37.77;;;33.00;;
6027;SDS011;3042;43.194;27.646;2023-04-01T04:56:09;38.23;;;34.43;;
6027;SDS011;3042;43.194;27.646;2023-04-01T04:58:36;34.50;;;30.93;;
6027;SDS011;3042;43.194;27.646;2023-04-01T05:01:07;38.70;;;34.67;;
6027;SDS011;3042;43.194;27.646;2023-04-01T05:03:35;34.33;;;31.13;;
6027;SDS011;3042;43.194;27.646;2023-04-01T05:06:03;36.60;;;32.27;;
6027;SDS011;3042;43.194;27.646;2023-04-01T05:08:31;32.93;;;29.87;;
6027;SDS011;3042;43.194;27.646;2023-04-01T05:11:00;36.67;;;31.40;;
6027;SDS011;3042;43.194;27.646;2023-04-01T05:13:28;37.90;;;32.87;;
6027;SDS011;3042;43.194;27.646;2023-04-01T05:15:55;37.83;;;34.13;;
6027;SDS011;3042;43.194;27.646;2023-04-01T05:18:22;37.40;;;33.80;;
6027;SDS011;3042;43.194;27.646;2023-04-01T05:20:50;38.77;;;34.00;;
6027;SDS011;3042;43.194;27.646;2023-04-01T05:23:18;48.50;;;34.77;;
6027;SDS011;3042;43.194;27.646;2023-04-01T05:25:47;48.00;;;35.60;;
6027;SDS011;3042;43.194;27.646;2023-04-01T05:28:15;43.97;;;35.47;;
6027;SDS011;3042;43.194;27.646;2023-04-01T05:30:43;41.43;;;36.90;;
6027;SDS011;3042;43.194;27.646;2023-04-01T05:33:10;46.97;;;36.23;;
6027;SDS011;3042;43.194;27.646;2023-04-01T05:35:38;41.87;;;37.37;;
6027;SDS011;3042;43.194;27.646;2023-04-01T05:38:06;39.83;;;35.80;;
6027;SDS011;3042;43.194;27.646;2023-04-01T05:40:33;57.70;;;34.53;;
6027;SDS011;3042;43.194;27.646;2023-04-01T05:43:00;66.57;;;37.70;;
6027;SDS011;3042;43.194;27.646;2023-04-01T05:45:28;55.03;;;34.70;;
6027;SDS011;3042;43.194;27.646;2023-04-01T05:47:55;62.40;;;34.13;;
6027;SDS011;3042;43.194;27.646;2023-04-01T05:50:22;79.33;;;36.13;;
6027;SDS011;3042;43.194;27.646;2023-04-01T05:52:49;76.30;;;38.63;;
6027;SDS011;3042;43.194;27.646;2023-04-01T05:55:16;97.40;;;37.80;;
6027;SDS011;3042;43.194;27.646;2023-04-01T05:57:44;85.67;;;35.97;;
6027;SDS011;3042;43.194;27.646;2023-04-01T06:00:13;104.77;;;38.80;;
6027;SDS011;3042;43.194;27.646;2023-04-01T06:02:43;79.83;;;35.60;;
6027;SDS011;3042;43.194;27.646;2023-04-01T06:05:12;47.53;;;33.47;;
6027;SDS011;3042;43.194;27.646;2023-04-01T06:07:43;44.47;;;31.90;;
6027;SDS011;3042;43.194;27.646;2023-04-01T06:10:12;33.53;;;29.93;;
6027;SDS011;3042;43.194;27.646;2023-04-01T06:12:55;33.03;;;29.43;;
6027;SDS011;3042;43.194;27.646;2023-04-01T06:15:35;35.37;;;29.67;;
6027;SDS011;3042;43.194;27.646;2023-04-01T06:18:19;32.43;;;29.43;;
6027;SDS011;3042;43.194;27.646;2023-04-01T06:21:05;33.43;;;29.83;;
6027;SDS011;3042;43.194;27.646;2023-04-01T06:23:42;31.87;;;28.90;;
6027;SDS011;3042;43.194;27.646;2023-04-01T06:26:23;76.00;;;32.77;;
6027;SDS011;3042;43.194;27.646;2023-04-01T06:29:04;67.03;;;33.13;;
6027;SDS011;3042;43.194;27.646;2023-04-01T06:31:57;131.93;;;36.90;;
6027;SDS011;3042;43.194;27.646;2023-04-01T06:34:44;145.07;;;37.93;;
6027;SDS011;3042;43.194;27.646;2023-04-01T06:37:27;80.10;;;32.83;;
6027;SDS011;3042;43.194;27.646;2023-04-01T06:40:35;108.83;;;34.77;;
6027;SDS011;3042;43.194;27.646;2023-04-01T06:43:24;48.17;;;30.00;;
6027;SDS011;3042;43.194;27.646;2023-04-01T06:46:02;114.63;;;40.13;;
6027;SDS011;3042;43.194;27.646;2023-04-01T06:48:41;78.77;;;36.00;;
6027;SDS011;3042;43.194;27.646;2023-04-01T06:51:25;80.03;;;34.20;;
6027;SDS011;3042;43.194;27.646;2023-04-01T06:54:03;90.93;;;33.43;;
6027;SDS011;3042;43.194;27.646;2023-04-01T06:56:34;124.33;;;40.50;;
6027;SDS011;3042;43.194;27.646;2023-04-01T06:59:08;193.30;;;44.80;;
6027;SDS011;3042;43.194;27.646;2023-04-01T07:01:39;65.70;;;33.37;;
6027;SDS011;3042;43.194;27.646;2023-04-01T07:04:10;45.83;;;31.77;;
6027;SDS011;3042;43.194;27.646;2023-04-01T07:06:45;35.53;;;32.03;;
6027;SDS011;3042;43.194;27.646;2023-04-01T07:09:18;32.70;;;29.60;;
6027;SDS011;3042;43.194;27.646;2023-04-01T07:11:48;33.57;;;29.00;;
6027;SDS011;3042;43.194;27.646;2023-04-01T07:14:17;32.73;;;28.30;;
6027;SDS011;3042;43.194;27.646;2023-04-01T07:16:48;34.37;;;30.90;;
6027;SDS011;3042;43.194;27.646;2023-04-01T07:19:22;35.30;;;31.83;;
6027;SDS011;3042;43.194;27.646;2023-04-01T07:21:58;32.43;;;29.43;;
6027;SDS011;3042;43.194;27.646;2023-04-01T07:24:32;32.43;;;29.37;;
6027;SDS011;3042;43.194;27.646;2023-04-01T07:27:00;31.63;;;28.00;;
6027;SDS011;3042;43.194;27.646;2023-04-01T07:29:27;29.97;;;27.17;;
6027;SDS011;3042;43.194;27.646;2023-04-01T07:35:01;28.17;;;25.57;;
6027;SDS011;3042;43.194;27.646;2023-04-01T07:37:45;29.40;;;26.50;;
6027;SDS011;3042;43.194;27.646;2023-04-01T07:40:21;29.40;;;26.50;;
6027;SDS011;3042;43.194;27.646;2023-04-01T07:42:59;28.20;;;25.60;;
6027;SDS011;3042;43.194;27.646;2023-04-01T07:45:38;28.60;;;26.10;;
6027;SDS011;3042;43.194;27.646;2023-04-01T07:48:17;29.17;;;26.30;;
6027;SDS011;3042;43.194;27.646;2023-04-01T07:50:51;30.93;;;28.00;;
6027;SDS011;3042;43.194;27.646;2023-04-01T07:53:29;28.13;;;25.30;;
6027;SDS011;3042;43.194;27.646;2023-04-01T07:56:02;30.30;;;26.70;;
6027;SDS011;3042;43.194;27.646;2023-04-01T07:58:34;28.17;;;24.73;;
6027;SDS011;3042;43.194;27.646;2023-04-01T08:01:12;25.80;;;23.60;;
6027;SDS011;3042;43.194;27.646;2023-04-01T08:03:53;27.17;;;24.60;;
6027;SDS011;3042;43.194;27.646;2023-04-01T08:06:33;24.07;;;21.80;;
6027;SDS011;3042;43.194;27.646;2023-04-01T08:09:09;27.27;;;24.40;;
6027;SDS011;3042;43.194;27.646;2023-04-01T08:11:47;22.10;;;20.33;;
6027;SDS011;3042;43.194;27.646;2023-04-01T08:14:27;23.60;;;21.70;;
6027;SDS011;3042;43.194;27.646;2023-04-01T08:17:01;25.10;;;22.60;;
6027;SDS011;3042;43.194;27.646;2023-04-01T08:19:36;34.97;;;23.93;;
6027;SDS011;3042;43.194;27.646;2023-04-01T08:22:20;89.50;;;26.30;;
6027;SDS011;3042;43.194;27.646;2023-04-01T08:24:54;24.80;;;22.70;;
6027;SDS011;3042;43.194;27.646;2023-04-01T08:27:26;22.83;;;21.00;;
6027;SDS011;3042;43.194;27.646;2023-04-01T08:30:01;26.07;;;23.30;;
6027;SDS011;3042;43.194;27.646;2023-04-01T08:32:32;32.77;;;23.13;;
6027;SDS011;3042;43.194;27.646;2023-04-01T08:35:07;23.50;;;21.20;;
6027;SDS011;3042;43.194;27.646;2023-04-01T08:37:41;26.60;;;24.20;;
6027;SDS011;3042;43.194;27.646;2023-04-01T08:43:11;48.97;;;24.97;;
6027;SDS011;3042;43.194;27.646;2023-04-01T08:45:52;85.07;;;27.93;;
6027;SDS011;3042;43.194;27.646;2023-04-01T08:48:41;23.93;;;22.10;;
6027;SDS011;3042;43.194;27.646;2023-04-01T08:57:38;25.90;;;23.33;;
6027;SDS011;3042;43.194;27.646;2023-04-01T09:00:15;21.63;;;19.93;;
6027;SDS011;3042;43.194;27.646;2023-04-01T09:03:10;20.95;;;19.10;;
6027;SDS011;3042;43.194;27.646;2023-04-01T09:09:00;23.03;;;20.83;;
6027;SDS011;3042;43.194;27.646;2023-04-01T09:11:43;21.83;;;20.20;;
6027;SDS011;3042;43.194;27.646;2023-04-01T09:14:29;22.17;;;20.30;;
6027;SDS011;3042;43.194;27.646;2023-04-01T09:20:25;22.10;;;20.27;;
6027;SDS011;3042;43.194;27.646;2023-04-01T09:23:15;20.77;;;18.70;;
6027;SDS011;3042;43.194;27.646;2023-04-01T09:25:58;22.30;;;20.27;;
6027;SDS011;3042;43.194;27.646;2023-04-01T09:28:47;23.57;;;21.50;;
6027;SDS011;3042;43.194;27.646;2023-04-01T09:31:28;20.03;;;18.40;;
6027;SDS011;3042;43.194;27.646;2023-04-01T09:34:21;22.30;;;20.53;;
6027;SDS011;3042;43.194;27.646;2023-04-01T09:37:00;21.67;;;19.90;;
6027;SDS011;3042;43.194;27.646;2023-04-01T09:39:43;20.20;;;18.90;;
6027;SDS011;3042;43.194;27.646;2023-04-01T09:42:35;18.43;;;17.23;;
6027;SDS011;3042;43.194;27.646;2023-04-01T09:45:10;20.37;;;18.97;;
6027;SDS011;3042;43.194;27.646;2023-04-01T09:47:59;19.67;;;18.37;;
6027;SDS011;3042;43.194;27.646;2023-04-01T09:50:39;21.60;;;19.47;;
6027;SDS011;3042;43.194;27.646;2023-04-01T09:53:16;19.97;;;18.57;;
6027;SDS011;3042;43.194;27.646;2023-04-01T09:55:56;73.50;;;28.93;;
6027;SDS011;3042;43.194;27.646;2023-04-01T09:58:51;33.47;;;22.67;;
6027;SDS011;3042;43.194;27.646;2023-04-01T10:08:04;33.70;;;17.50;;
6027;SDS011;3042;43.194;27.646;2023-04-01T10:10:54;21.40;;;19.70;;
6027;SDS011;3042;43.194;27.646;2023-04-01T10:13:44;35.27;;;18.53;;
6027;SDS011;3042;43.194;27.646;2023-04-01T10:16:37;20.20;;;18.60;;
6027;SDS011;3042;43.194;27.646;2023-04-01T10:19:30;60.57;;;22.97;;
6027;SDS011;3042;43.194;27.646;2023-04-01T10:22:25;34.77;;;20.00;;
6027;SDS011;3042;43.194;27.646;2023-04-01T10:28:28;46.97;;;20.87;;
6027;SDS011;3042;43.194;27.646;2023-04-01T10:31:22;42.00;;;19.47;;
6027;SDS011;3042;43.194;27.646;2023-04-01T10:34:13;22.73;;;19.70;;
6027;SDS011;3042;43.194;27.646;2023-04-01T10:37:07;22.90;;;20.60;;
6027;SDS011;3042;43.194;27.646;2023-04-01T10:49:24;48.13;;;20.93;;
6027;SDS011;3042;43.194;27.646;2023-04-01T11:01:59;52.73;;;22.33;;
6027;SDS011;3042;43.194;27.646;2023-04-01T11:08:27;19.93;;;18.13;;
6027;SDS011;3042;43.194;27.646;2023-04-01T11:14:45;21.50;;;19.70;;
6027;SDS011;3042;43.194;27.646;2023-04-01T11:20:58;21.37;;;19.47;;
6027;SDS011;3042;43.194;27.646;2023-04-01T11:23:56;19.10;;;17.50;;
6027;SDS011;3042;43.194;27.646;2023-04-01T11:26:41;32.17;;;19.80;;
6027;SDS011;3042;43.194;27.646;2023-04-01T11:32:29;19.80;;;18.20;;
6027;SDS011;3042;43.194;27.646;2023-04-01T11:37:59;50.30;;;22.33;;
6027;SDS011;3042;43.194;27.646;2023-04-01T11:40:35;23.13;;;18.03;;
6027;SDS011;3042;43.194;27.646;2023-04-01T11:43:12;19.57;;;17.97;;
6027;SDS011;3042;43.194;27.646;2023-04-01T11:45:49;20.57;;;18.60;;
6027;SDS011;3042;43.194;27.646;2023-04-01T11:48:27;18.77;;;17.20;;
6027;SDS011;3042;43.194;27.646;2023-04-01T11:51:08;24.57;;;21.20;;
6027;SDS011;3042;43.194;27.646;2023-04-01T11:53:47;25.13;;;19.23;;
6027;SDS011;3042;43.194;27.646;2023-04-01T11:56:31;22.67;;;18.53;;
6027;SDS011;3042;43.194;27.646;2023-04-01T12:02:10;19.80;;;18.10;;
6027;SDS011;3042;43.194;27.646;2023-04-01T12:04:49;18.03;;;16.40;;
6027;SDS011;3042;43.194;27.646;2023-04-01T12:10:26;20.03;;;18.40;;
6027;SDS011;3042;43.194;27.646;2023-04-01T12:13:04;18.57;;;16.93;;
6027;SDS011;3042;43.194;27.646;2023-04-01T12:15:45;34.60;;;20.90;;
6027;SDS011;3042;43.194;27.646;2023-04-01T12:18:26;21.70;;;20.00;;
6027;SDS011;3042;43.194;27.646;2023-04-01T12:21:02;48.13;;;22.43;;
6027;SDS011;3042;43.194;27.646;2023-04-01T12:23:51;21.60;;;19.73;;
6027;SDS011;3042;43.194;27.646;2023-04-01T12:26:59;21.43;;;18.13;;
6027;SDS011;3042;43.194;27.646;2023-04-01T12:32:30;18.63;;;17.13;;
6027;SDS011;3042;43.194;27.646;2023-04-01T12:35:12;20.70;;;18.90;;
6027;SDS011;3042;43.194;27.646;2023-04-01T12:37:47;19.00;;;17.30;;
6027;SDS011;3042;43.194;27.646;2023-04-01T12:40:28;29.83;;;18.77;;
6027;SDS011;3042;43.194;27.646;2023-04-01T12:46:29;42.37;;;22.13;;
6027;SDS011;3042;43.194;27.646;2023-04-01T12:49:21;20.27;;;18.07;;
6027;SDS011;3042;43.194;27.646;2023-04-01T12:52:05;91.50;;;24.90;;
6027;SDS011;3042;43.194;27.646;2023-04-01T12:54:48;36.20;;;21.83;;
6027;SDS011;3042;43.194;27.646;2023-04-01T13:00:45;69.93;;;27.80;;
6027;SDS011;3042;43.194;27.646;2023-04-01T13:03:30;44.37;;;23.87;;
6027;SDS011;3042;43.194;27.646;2023-04-01T13:06:25;21.50;;;19.50;;
6027;SDS011;3042;43.194;27.646;2023-04-01T13:09:01;32.97;;;24.50;;
6027;SDS011;3042;43.194;27.646;2023-04-01T13:11:44;40.03;;;23.97;;
6027;SDS011;3042;43.194;27.646;2023-04-01T13:14:32;50.97;;;23.20;;
6027;SDS011;3042;43.194;27.646;2023-04-01T13:17:16;24.50;;;20.97;;
6027;SDS011;3042;43.194;27.646;2023-04-01T13:19:49;38.27;;;25.10;;
6027;SDS011;3042;43.194;27.646;2023-04-01T13:22:23;22.10;;;19.77;;
6027;SDS011;3042;43.194;27.646;2023-04-01T13:24:59;21.77;;;18.40;;
6027;SDS011;3042;43.194;27.646;2023-04-01T13:27:30;22.50;;;19.90;;
6027;SDS011;3042;43.194;27.646;2023-04-01T13:30:04;21.50;;;18.20;;
6027;SDS011;3042;43.194;27.646;2023-04-01T13:32:46;44.20;;;20.60;;
6027;SDS011;3042;43.194;27.646;2023-04-01T13:35:20;42.47;;;22.67;;
6027;SDS011;3042;43.194;27.646;2023-04-01T13:38:04;30.67;;;19.70;;
6027;SDS011;3042;43.194;27.646;2023-04-01T13:41:06;18.10;;;16.67;;
6027;SDS011;3042;43.194;27.646;2023-04-01T13:43:47;18.40;;;17.00;;
6027;SDS011;3042;43.194;27.646;2023-04-01T13:49:37;20.57;;;18.43;;
6027;SDS011;3042;43.194;27.646;2023-04-01T13:52:26;20.93;;;18.37;;
6027;SDS011;3042;43.194;27.646;2023-04-01T13:55:35;18.20;;;16.63;;
6027;SDS011;3042;43.194;27.646;2023-04-01T13:58:19;20.27;;;18.50;;
6027;SDS011;3042;43.194;27.646;2023-04-01T14:00:59;21.33;;;19.10;;
6027;SDS011;3042;43.194;27.646;2023-04-01T14:06:55;29.00;;;20.20;;
6027;SDS011;3042;43.194;27.646;2023-04-01T14:09:40;24.83;;;18.57;;
6027;SDS011;3042;43.194;27.646;2023-04-01T14:12:27;19.33;;;17.93;;
6027;SDS011;3042;43.194;27.646;2023-04-01T14:15:11;20.40;;;17.90;;
6027;SDS011;3042;43.194;27.646;2023-04-01T14:18:15;22.63;;;18.80;;
6027;SDS011;3042;43.194;27.646;2023-04-01T14:20:59;19.83;;;17.63;;
6027;SDS011;3042;43.194;27.646;2023-04-01T14:23:42;22.37;;;20.00;;
6027;SDS011;3042;43.194;27.646;2023-04-01T14:26:33;20.27;;;18.33;;
6027;SDS011;3042;43.194;27.646;2023-04-01T14:29:23;39.10;;;19.83;;
6027;SDS011;3042;43.194;27.646;2023-04-01T14:32:05;22.83;;;19.03;;
6027;SDS011;3042;43.194;27.646;2023-04-01T14:34:45;24.23;;;17.77;;
6027;SDS011;3042;43.194;27.646;2023-04-01T14:37:27;24.73;;;18.20;;
6027;SDS011;3042;43.194;27.646;2023-04-01T14:40:19;19.37;;;17.57;;
6027;SDS011;3042;43.194;27.646;2023-04-01T14:42:58;19.87;;;17.77;;
6027;SDS011;3042;43.194;27.646;2023-04-01T14:48:36;20.90;;;18.90;;
6027;SDS011;3042;43.194;27.646;2023-04-01T14:51:09;18.90;;;17.30;;
6027;SDS011;3042;43.194;27.646;2023-04-01T14:53:43;20.00;;;17.90;;
6027;SDS011;3042;43.194;27.646;2023-04-01T14:56:36;31.47;;;20.03;;
6027;SDS011;3042;43.194;27.646;2023-04-01T14:59:09;21.37;;;19.33;;
6027;SDS011;3042;43.194;27.646;2023-04-01T15:01:44;25.63;;;22.90;;
6027;SDS011;3042;43.194;27.646;2023-04-01T15:04:31;23.27;;;20.80;;
6027;SDS011;3042;43.194;27.646;2023-04-01T15:07:26;35.70;;;21.30;;
6027;SDS011;3042;43.194;27.646;2023-04-01T15:10:24;25.60;;;20.60;;
6027;SDS011;3042;43.194;27.646;2023-04-01T15:13:08;22.90;;;20.60;;
6027;SDS011;3042;43.194;27.646;2023-04-01T15:15:46;22.53;;;20.43;;
6027;SDS011;3042;43.194;27.646;2023-04-01T15:18:27;29.53;;;21.23;;
6027;SDS011;3042;43.194;27.646;2023-04-01T15:21:13;28.43;;;20.23;;
6027;SDS011;3042;43.194;27.646;2023-04-01T15:23:54;25.27;;;19.80;;
6027;SDS011;3042;43.194;27.646;2023-04-01T15:32:16;25.80;;;19.83;;
6027;SDS011;3042;43.194;27.646;2023-04-01T15:34:48;25.77;;;23.13;;
6027;SDS011;3042;43.194;27.646;2023-04-01T15:37:22;26.53;;;23.27;;
6027;SDS011;3042;43.194;27.646;2023-04-01T15:40:07;28.60;;;22.60;;
6027;SDS011;3042;43.194;27.646;2023-04-01T15:42:47;33.63;;;24.10;;
6027;SDS011;3042;43.194;27.646;2023-04-01T15:45:31;29.30;;;22.17;;
6027;SDS011;3042;43.194;27.646;2023-04-01T15:48:13;24.23;;;21.73;;
6027;SDS011;3042;43.194;27.646;2023-04-01T15:51:08;23.50;;;21.80;;
6027;SDS011;3042;43.194;27.646;2023-04-01T15:53:55;23.40;;;20.43;;
6027;SDS011;3042;43.194;27.646;2023-04-01T15:56:41;27.33;;;21.40;;
6027;SDS011;3042;43.194;27.646;2023-04-01T15:59:20;31.33;;;22.13;;
6027;SDS011;3042;43.194;27.646;2023-04-01T16:02:01;41.87;;;26.43;;
6027;SDS011;3042;43.194;27.646;2023-04-01T16:04:45;30.23;;;23.95;;
6027;SDS011;3042;43.194;27.646;2023-04-01T16:07:27;48.50;;;25.40;;
6027;SDS011;3042;43.194;27.646;2023-04-01T16:10:16;46.17;;;23.60;;
6027;SDS011;3042;43.194;27.646;2023-04-01T16:12:53;23.40;;;21.23;;
6027;SDS011;3042;43.194;27.646;2023-04-01T16:15:29;32.57;;;24.97;;
6027;SDS011;3042;43.194;27.646;2023-04-01T16:18:09;26.17;;;23.47;;
6027;SDS011;3042;43.194;27.646;2023-04-01T16:20:57;23.30;;;21.20;;
6027;SDS011;3042;43.194;27.646;2023-04-01T16:23:30;32.30;;;22.23;;
6027;SDS011;3042;43.194;27.646;2023-04-01T16:26:05;23.13;;;21.10;;
6027;SDS011;3042;43.194;27.646;2023-04-01T16:28:36;31.40;;;21.87;;
6027;SDS011;3042;43.194;27.646;2023-04-01T16:31:10;26.13;;;22.20;;
6027;SDS011;3042;43.194;27.646;2023-04-01T16:33:45;22.50;;;20.60;;
6027;SDS011;3042;43.194;27.646;2023-04-01T16:36:22;31.97;;;21.30;;
6027;SDS011;3042;43.194;27.646;2023-04-01T16:39:06;24.73;;;22.23;;
6027;SDS011;3042;43.194;27.646;2023-04-01T16:41:47;27.07;;;24.37;;
6027;SDS011;3042;43.194;27.646;2023-04-01T16:44:19;26.53;;;22.43;;
6027;SDS011;3042;43.194;27.646;2023-04-01T16:46:49;28.43;;;25.33;;
6027;SDS011;3042;43.194;27.646;2023-04-01T16:49:25;40.60;;;21.37;;
6027;SDS011;3042;43.194;27.646;2023-04-01T16:52:05;23.97;;;21.90;;
6027;SDS011;3042;43.194;27.646;2023-04-01T16:54:41;51.47;;;25.30;;
6027;SDS011;3042;43.194;27.646;2023-04-01T16:57:16;43.20;;;23.13;;
6027;SDS011;3042;43.194;27.646;2023-04-01T16:59:47;25.97;;;21.40;;
6027;SDS011;3042;43.194;27.646;2023-04-01T17:02:23;25.23;;;22.60;;
6027;SDS011;3042;43.194;27.646;2023-04-01T17:04:55;25.90;;;22.73;;
6027;SDS011;3042;43.194;27.646;2023-04-01T17:07:30;35.97;;;21.60;;